Raccoon, Illinois
Current Conditions -  °F | °C
As of 1:55 PM on Friday 24 Oct 2014 (Local Time) from KENL Reporting Station
Clear Clear  
Wind Chill: 19°   Ceiling: Unl
Heat Index: 19°   Visibility: 10mi
Dew Point: 12°   Wind: 5mph
Humidity: 65%   Direction: 210°SSW
Pressure: 30.07"   Gusts: NA
Location:  38.5134°N, 89.1673°W
Report Text: KENL 241855Z AUTO 21004KT 10SM CLR 19/12 A3007 RMK AO2 T01900122
Loading
Personal Weather Stations






























Interactive Weather Map
Tropical Storm Tracking
New forecast layout! Learn more

10-Day Weather Forecast

Advertisements
Track Severe Weather on mobile